createdAt,value
2022-12-05T00:01:22.174Z,15.40
2022-12-05T00:03:54.339Z,14.82
2022-12-05T00:06:25.669Z,13.50
2022-12-05T00:08:56.109Z,15.27
2022-12-05T00:11:28.216Z,15.07
2022-12-05T00:14:03.221Z,15.25
2022-12-05T00:16:34.982Z,14.52
2022-12-05T00:19:06.634Z,15.07
2022-12-05T00:21:38.890Z,15.55
2022-12-05T00:24:11.688Z,14.63
2022-12-05T00:26:41.874Z,15.38
2022-12-05T00:29:14.982Z,15.65
2022-12-05T00:31:45.447Z,14.07
2022-12-05T00:34:15.781Z,15.48
2022-12-05T00:36:46.059Z,15.73
2022-12-05T00:39:17.059Z,16.23
2022-12-05T00:41:47.304Z,14.32
2022-12-05T00:44:19.864Z,15.85
2022-12-05T00:46:50.081Z,16.13
2022-12-05T00:49:20.346Z,16.65
2022-12-05T00:51:50.565Z,17.02
2022-12-05T00:54:20.738Z,15.95
2022-12-05T00:56:52.448Z,15.38
2022-12-05T00:59:25.655Z,15.38
2022-12-05T01:01:56.050Z,15.38
2022-12-05T01:04:27.924Z,15.15
2022-12-05T01:06:59.872Z,15.60
2022-12-05T01:09:29.999Z,16.55
2022-12-05T01:12:00.236Z,16.45
2022-12-05T01:14:32.754Z,15.45
2022-12-05T01:17:03.036Z,15.45
2022-12-05T01:19:34.880Z,15.38
2022-12-05T01:22:05.103Z,16.25
2022-12-05T01:24:35.423Z,15.45
2022-12-05T01:27:05.612Z,14.80
2022-12-05T01:29:38.125Z,16.58
2022-12-05T01:32:08.802Z,16.02
2022-12-05T01:34:39.060Z,16.05
2022-12-05T01:37:09.262Z,16.23
2022-12-05T01:39:39.491Z,16.40
2022-12-05T01:42:09.756Z,16.52
2022-12-05T01:45:15.145Z,15.73
2022-12-05T01:50:15.819Z,15.23
2022-12-05T01:52:46.113Z,15.68
2022-12-05T01:55:20.155Z,14.27
2022-12-05T01:57:51.799Z,15.18
2022-12-05T02:00:24.646Z,15.35
2022-12-05T02:02:59.532Z,16.05
2022-12-05T02:05:32.540Z,16.27
2022-12-05T02:08:05.414Z,15.52
2022-12-05T02:10:39.282Z,16.08
2022-12-05T02:13:21.500Z,16.90
2022-12-05T02:16:02.475Z,16.00
2022-12-05T02:18:45.096Z,15.93
2022-12-05T02:21:57.998Z,16.58
2022-12-05T02:24:56.065Z,15.05
2022-12-05T02:27:49.886Z,15.88
2022-12-05T02:30:24.449Z,15.07
2022-12-05T02:33:06.532Z,16.52
2022-12-05T02:35:52.716Z,17.40
2022-12-05T02:38:30.162Z,16.52
2022-12-05T02:41:09.090Z,16.75
2022-12-05T02:43:44.507Z,17.67
2022-12-05T02:46:21.707Z,16.02
2022-12-05T02:48:54.620Z,16.83
2022-12-05T02:51:28.026Z,16.38
2022-12-05T02:54:00.496Z,16.40
2022-12-05T02:56:31.106Z,18.40
2022-12-05T02:59:01.396Z,17.35
2022-12-05T03:01:35.401Z,17.98
2022-12-05T03:04:08.916Z,17.45
2022-12-05T03:06:44.278Z,16.23
2022-12-05T03:09:19.194Z,15.32
2022-12-05T03:11:53.638Z,14.40
2022-12-05T03:17:02.704Z,13.95
2022-12-05T03:19:39.674Z,13.00
2022-12-05T03:22:12.203Z,14.75
2022-12-05T03:24:44.527Z,13.35
2022-12-05T03:27:24.171Z,13.55
2022-12-05T03:29:58.721Z,13.93
2022-12-05T03:32:40.468Z,12.75
2022-12-05T03:35:17.626Z,12.65
2022-12-05T03:37:52.311Z,12.52
2022-12-05T03:40:30.467Z,12.35
2022-12-05T03:43:09.165Z,11.77
2022-12-05T03:45:42.523Z,12.30
2022-12-05T03:48:21.899Z,11.87
2022-12-05T03:50:54.120Z,11.80
2022-12-05T03:53:29.628Z,12.32
2022-12-05T03:56:04.615Z,10.30
2022-12-05T03:58:38.724Z,12.48
2022-12-05T04:01:11.439Z,11.57
2022-12-05T04:03:51.736Z,11.27
2022-12-05T04:06:27.170Z,10.88
2022-12-05T04:09:01.411Z,11.63
2022-12-05T04:11:38.355Z,9.15
2022-12-05T04:14:14.162Z,11.10
2022-12-05T04:17:01.571Z,9.98
2022-12-05T04:19:51.324Z,10.85
2022-12-05T04:22:21.871Z,10.80
2022-12-05T04:25:05.447Z,10.02
2022-12-05T04:27:43.643Z,11.13
2022-12-05T04:30:17.352Z,9.80
2022-12-05T04:32:50.610Z,10.88
2022-12-05T04:35:28.426Z,10.25
2022-12-05T04:38:04.864Z,9.40
2022-12-05T04:40:40.592Z,9.02
2022-12-05T04:43:12.955Z,9.00
2022-12-05T04:45:46.309Z,8.55
2022-12-05T04:48:20.041Z,9.45
2022-12-05T04:50:55.972Z,9.90
2022-12-05T04:53:28.832Z,9.57
2022-12-05T04:56:03.110Z,8.30
2022-12-05T04:58:34.490Z,9.32
2022-12-05T05:01:10.228Z,8.98
2022-12-05T05:03:45.386Z,7.70
2022-12-05T05:06:18.729Z,9.43
2022-12-05T05:08:53.357Z,7.25
2022-12-05T05:11:26.148Z,7.10
2022-12-05T05:13:56.834Z,6.50
2022-12-05T05:16:29.145Z,6.75
2022-12-05T05:18:59.668Z,7.30
2022-12-05T05:21:34.753Z,7.05
2022-12-05T05:24:05.125Z,7.28
2022-12-05T05:26:37.996Z,6.43
2022-12-05T05:29:09.662Z,6.93
2022-12-05T05:31:40.377Z,6.57
2022-12-05T05:34:10.946Z,6.05
2022-12-05T05:36:43.525Z,6.32
2022-12-05T05:39:16.761Z,5.97
2022-12-05T05:41:47.221Z,5.80
2022-12-05T05:44:17.206Z,6.00
2022-12-05T05:46:47.164Z,5.68
2022-12-05T05:49:17.484Z,6.78
2022-12-05T05:51:50.037Z,6.22
2022-12-05T05:54:20.236Z,5.65
2022-12-05T05:56:50.493Z,6.25
2022-12-05T05:59:20.468Z,5.82
2022-12-05T06:01:50.723Z,6.10
2022-12-05T06:04:21.079Z,5.38
2022-12-05T06:06:53.829Z,5.28
2022-12-05T06:09:24.059Z,5.75
2022-12-05T06:11:54.118Z,5.55
2022-12-05T06:14:24.335Z,5.30
2022-12-05T06:16:54.648Z,4.78
2022-12-05T06:19:27.810Z,5.53
2022-12-05T06:22:00.392Z,5.10
2022-12-05T06:24:30.784Z,7.80
2022-12-05T06:27:00.749Z,13.88
2022-12-05T06:29:33.831Z,7.80
2022-12-05T06:32:04.703Z,5.97
2022-12-05T06:34:35.774Z,5.03
2022-12-05T06:37:08.350Z,5.22
2022-12-05T06:39:38.634Z,5.82
2022-12-05T06:42:08.760Z,8.07
2022-12-05T06:44:38.807Z,8.35
2022-12-05T06:47:08.840Z,7.28
2022-12-05T06:49:39.071Z,7.88
2022-12-05T06:52:11.632Z,8.48
2022-12-05T06:54:41.604Z,8.10
2022-12-05T06:57:12.506Z,8.73
2022-12-05T06:59:42.714Z,8.63
2022-12-05T07:02:12.644Z,8.20
2022-12-05T07:04:42.633Z,9.43
2022-12-05T07:07:15.207Z,8.93
2022-12-05T07:09:54.057Z,7.60
2022-12-05T07:12:24.266Z,9.68
2022-12-05T07:14:54.517Z,7.95
2022-12-05T07:17:24.878Z,9.13
2022-12-05T07:19:56.055Z,9.02
2022-12-05T07:22:28.683Z,9.75
2022-12-05T07:24:58.895Z,8.90
2022-12-05T07:27:29.132Z,9.60
2022-12-05T07:29:59.504Z,9.30
2022-12-05T07:32:29.892Z,8.98
2022-12-05T07:34:59.834Z,10.00
2022-12-05T07:37:32.519Z,9.52
2022-12-05T07:40:02.496Z,10.48
2022-12-05T07:42:32.749Z,9.70
2022-12-05T07:45:03.022Z,10.25
2022-12-05T07:47:33.423Z,9.32
2022-12-05T07:50:03.709Z,12.35
2022-12-05T07:52:36.264Z,9.75
2022-12-05T07:55:07.236Z,10.60
2022-12-05T07:57:37.222Z,10.48
2022-12-05T08:00:08.157Z,10.48
2022-12-05T08:02:42.784Z,10.68
2022-12-05T08:05:12.869Z,11.30
2022-12-05T08:07:45.513Z,9.57
2022-12-05T08:10:15.753Z,9.73
2022-12-05T08:12:45.964Z,9.10
2022-12-05T08:15:16.171Z,11.30
2022-12-05T08:17:46.195Z,9.40
2022-12-05T08:20:17.114Z,8.82
2022-12-05T08:22:49.675Z,9.23
2022-12-05T08:25:19.811Z,9.85
2022-12-05T08:27:50.112Z,9.67
2022-12-05T08:30:20.413Z,9.00
2022-12-05T08:32:50.369Z,10.65
2022-12-05T08:35:20.720Z,10.50
2022-12-05T08:37:53.302Z,9.45
2022-12-05T08:40:23.274Z,9.68
2022-12-05T08:42:53.205Z,12.43
2022-12-05T08:45:23.125Z,9.25
2022-12-05T08:47:53.061Z,10.27
2022-12-05T08:50:22.963Z,8.32
2022-12-05T08:52:55.496Z,8.55
2022-12-05T08:55:25.600Z,10.00
2022-12-05T08:57:55.871Z,9.30
2022-12-05T09:00:26.114Z,11.02
2022-12-05T09:02:56.397Z,9.63
2022-12-05T09:05:29.035Z,10.50
2022-12-05T09:08:02.187Z,9.60
2022-12-05T09:10:32.674Z,9.33
2022-12-05T09:13:02.779Z,10.05
2022-12-05T09:15:32.828Z,9.30
2022-12-05T09:18:03.077Z,10.45
2022-12-05T09:20:33.359Z,9.80
2022-12-05T09:23:05.919Z,9.45
2022-12-05T09:25:36.979Z,10.48
2022-12-05T09:28:07.233Z,9.27
2022-12-05T09:30:37.632Z,10.50
2022-12-05T09:33:07.906Z,9.30
2022-12-05T09:35:42.388Z,8.73
2022-12-05T09:40:46.000Z,9.80
2022-12-05T09:43:27.777Z,9.40
2022-12-05T09:46:04.394Z,9.55
2022-12-05T09:48:35.319Z,9.25
2022-12-05T09:51:06.959Z,12.18
2022-12-05T09:53:42.739Z,9.20
2022-12-05T09:56:23.952Z,10.30
2022-12-05T09:58:55.367Z,9.50
2022-12-05T10:01:41.728Z,10.10
2022-12-05T10:04:36.281Z,11.20
2022-12-05T10:07:13.325Z,10.57
2022-12-05T10:09:56.655Z,10.43
2022-12-05T10:12:50.659Z,9.77
2022-12-05T10:15:27.773Z,9.57
2022-12-05T10:18:02.243Z,9.75
2022-12-05T10:23:07.994Z,11.57
2022-12-05T10:25:41.599Z,11.15
2022-12-05T10:28:18.364Z,10.93
2022-12-05T10:30:51.265Z,11.02
2022-12-05T10:33:25.073Z,12.68
2022-12-05T10:35:55.234Z,9.35
2022-12-05T10:38:29.395Z,10.15
2022-12-05T10:41:04.121Z,8.93
2022-12-05T10:43:37.275Z,11.25
2022-12-05T10:46:10.664Z,9.80
2022-12-05T10:48:45.009Z,10.55
2022-12-05T10:51:18.107Z,9.90
2022-12-05T10:53:49.989Z,10.48
2022-12-05T10:56:42.970Z,10.30
2022-12-05T10:59:15.347Z,10.10
2022-12-05T11:01:52.393Z,10.07
2022-12-05T11:04:34.341Z,10.43
2022-12-05T11:07:06.917Z,10.73
2022-12-05T11:09:39.423Z,9.68
2022-12-05T11:12:19.705Z,10.48
2022-12-05T11:14:59.169Z,10.93
2022-12-05T11:17:33.126Z,9.93
2022-12-05T11:20:03.490Z,10.32
2022-12-05T11:22:34.973Z,10.30
2022-12-05T11:25:28.652Z,11.25
2022-12-05T11:28:02.890Z,10.45
2022-12-05T11:30:33.120Z,9.98
2022-12-05T11:33:23.595Z,11.30
2022-12-05T11:35:57.332Z,10.40
2022-12-05T11:38:32.454Z,11.50
2022-12-05T11:41:14.209Z,11.93
2022-12-05T11:44:08.341Z,10.77
2022-12-05T11:46:47.750Z,11.20
2022-12-05T11:49:43.463Z,12.93
2022-12-05T11:52:25.526Z,11.98
2022-12-05T11:55:05.711Z,10.82
2022-12-05T11:58:03.573Z,12.93
2022-12-05T12:00:44.694Z,14.07
2022-12-05T12:03:33.565Z,10.57
2022-12-05T12:06:18.143Z,11.05
2022-12-05T12:08:57.955Z,12.00
2022-12-05T12:11:35.013Z,12.52
2022-12-05T12:14:11.869Z,11.43
2022-12-05T12:16:56.470Z,11.25
2022-12-05T12:19:51.837Z,8.68
2022-12-05T12:22:42.987Z,9.73
2022-12-05T12:25:26.742Z,10.10
2022-12-05T12:28:10.302Z,9.68
2022-12-05T12:30:56.450Z,10.90
2022-12-05T12:33:35.202Z,10.82
2022-12-05T12:36:16.696Z,10.52
2022-12-05T12:39:18.090Z,12.95
2022-12-05T12:42:09.234Z,9.63
2022-12-05T12:45:02.935Z,10.05
2022-12-05T12:47:46.101Z,15.02
2022-12-05T12:50:26.320Z,11.43
2022-12-05T12:53:24.837Z,9.90
2022-12-05T12:56:03.289Z,10.75
2022-12-05T12:58:46.079Z,11.00
2022-12-05T13:01:26.574Z,11.55
2022-12-05T13:04:02.897Z,9.90
2022-12-05T13:06:42.070Z,10.45
2022-12-05T13:09:21.047Z,9.98
2022-12-05T13:11:54.221Z,9.48
2022-12-05T13:14:27.865Z,9.50
2022-12-05T13:16:59.514Z,8.93
2022-12-05T13:19:37.494Z,10.20
2022-12-05T13:22:11.162Z,10.70
2022-12-05T13:24:42.624Z,11.95
2022-12-05T13:27:19.214Z,11.73
2022-12-05T13:29:54.516Z,9.98
2022-12-05T13:32:34.443Z,14.95
2022-12-05T13:35:12.168Z,11.32
2022-12-05T13:38:03.776Z,11.48
2022-12-05T13:40:49.570Z,9.93
2022-12-05T13:43:23.034Z,9.95
2022-12-05T13:46:07.427Z,12.00
2022-12-05T13:48:40.550Z,10.18
2022-12-05T13:51:14.578Z,10.07
2022-12-05T13:53:50.670Z,10.48
2022-12-05T13:56:30.479Z,9.70
2022-12-05T13:59:01.147Z,11.27
2022-12-05T14:01:55.833Z,11.18
2022-12-05T14:07:12.729Z,9.33
2022-12-05T14:09:57.310Z,9.55
2022-12-05T14:12:58.013Z,11.77
2022-12-05T14:15:37.901Z,9.63
2022-12-05T14:18:15.958Z,11.85
2022-12-05T14:21:01.253Z,10.90
2022-12-05T14:23:55.793Z,9.95
2022-12-05T14:26:55.065Z,9.93
2022-12-05T14:29:39.255Z,10.77
2022-12-05T14:32:25.282Z,9.73
2022-12-05T14:35:05.391Z,8.38
2022-12-05T14:37:38.741Z,11.50
2022-12-05T14:40:23.306Z,11.30
2022-12-05T14:43:02.083Z,10.30
2022-12-05T14:45:36.133Z,11.70
2022-12-05T14:48:09.401Z,10.77
2022-12-05T14:50:43.515Z,12.13
2022-12-05T14:53:36.173Z,11.15
2022-12-05T14:56:17.938Z,11.07
2022-12-05T14:58:55.926Z,10.35
2022-12-05T15:01:29.746Z,11.18
2022-12-05T15:04:17.437Z,10.43
2022-12-05T15:06:55.233Z,11.07
2022-12-05T15:09:48.923Z,10.23
2022-12-05T15:12:22.934Z,9.82
2022-12-05T15:15:02.235Z,10.73
2022-12-05T15:17:40.177Z,12.38
2022-12-05T15:20:18.970Z,9.80
2022-12-05T15:22:49.302Z,9.63
2022-12-05T15:25:30.672Z,9.43
2022-12-05T15:28:03.827Z,10.35
2022-12-05T15:30:41.277Z,10.30
2022-12-05T15:33:15.330Z,9.57
2022-12-05T15:35:51.069Z,11.05
2022-12-05T15:38:27.786Z,9.98
2022-12-05T15:40:58.266Z,12.45
2022-12-05T15:43:33.552Z,9.50
2022-12-05T15:46:24.419Z,12.43
2022-12-05T15:48:55.560Z,10.63
2022-12-05T15:51:31.154Z,9.13
2022-12-05T15:54:08.638Z,10.07
2022-12-05T15:56:42.739Z,10.02
2022-12-05T15:59:18.641Z,10.40
2022-12-05T16:01:55.277Z,10.05
2022-12-05T16:04:31.116Z,10.48
2022-12-05T16:07:05.999Z,10.07
2022-12-05T16:09:41.319Z,9.00
2022-12-05T16:12:26.577Z,10.40
2022-12-05T16:15:01.469Z,10.13
2022-12-05T16:17:43.131Z,10.10
2022-12-05T16:20:15.164Z,9.60
2022-12-05T16:22:48.161Z,10.90
2022-12-05T16:25:21.212Z,11.60
2022-12-05T16:28:00.575Z,12.60
2022-12-05T16:30:32.187Z,11.43
2022-12-05T16:33:06.518Z,11.45
2022-12-05T16:38:22.335Z,11.32
2022-12-05T16:41:00.406Z,12.00
2022-12-05T16:43:45.574Z,11.90
2022-12-05T16:46:45.934Z,12.02
2022-12-05T16:49:45.989Z,15.00
2022-12-05T16:52:19.699Z,16.67
2022-12-05T16:54:52.352Z,13.02
2022-12-05T16:57:22.923Z,13.63
2022-12-05T16:59:53.692Z,12.93
2022-12-05T17:02:24.333Z,13.45
2022-12-05T17:04:56.694Z,11.02
2022-12-05T17:07:33.977Z,10.60
2022-12-05T17:10:05.027Z,10.75
2022-12-05T17:12:36.154Z,11.57
2022-12-05T17:15:07.232Z,9.57
2022-12-05T17:17:38.073Z,9.48
2022-12-05T17:20:10.888Z,11.65
2022-12-05T17:23:06.138Z,9.38
2022-12-05T17:25:40.851Z,8.68
2022-12-05T17:28:12.379Z,7.32
2022-12-05T17:30:49.663Z,7.90
2022-12-05T17:33:22.064Z,8.48
2022-12-05T17:35:53.186Z,8.35
2022-12-05T17:38:24.193Z,8.60
2022-12-05T17:41:00.247Z,7.72
2022-12-05T17:43:33.173Z,6.78
2022-12-05T17:46:04.306Z,9.45
2022-12-05T17:48:34.899Z,7.50
2022-12-05T17:51:10.219Z,7.70
2022-12-05T17:53:41.073Z,6.97
2022-12-05T17:56:14.364Z,6.55
2022-12-05T17:58:45.770Z,7.40
2022-12-05T18:01:18.077Z,7.97
2022-12-05T18:03:48.960Z,8.60
2022-12-05T18:06:20.190Z,8.60
2022-12-05T18:08:50.674Z,14.35
2022-12-05T18:11:23.698Z,12.00
2022-12-05T18:13:55.374Z,7.43
2022-12-05T18:16:25.794Z,8.32
2022-12-05T18:18:56.500Z,10.25
2022-12-05T18:21:26.868Z,9.85
2022-12-05T18:23:57.204Z,9.48
2022-12-05T18:26:30.289Z,13.23
2022-12-05T18:29:00.713Z,10.82
2022-12-05T18:31:31.298Z,10.30
2022-12-05T18:34:01.855Z,11.90
2022-12-05T18:36:32.221Z,13.90
2022-12-05T18:39:03.003Z,8.75
2022-12-05T18:41:36.026Z,12.00
2022-12-05T18:44:06.763Z,9.05
2022-12-05T18:46:37.063Z,10.27
2022-12-05T18:49:09.457Z,9.65
2022-12-05T18:51:39.883Z,8.90
2022-12-05T18:54:10.753Z,7.75
2022-12-05T18:56:46.113Z,9.20
2022-12-05T18:59:17.569Z,8.18
2022-12-05T19:01:48.080Z,8.70
2022-12-05T19:04:19.018Z,8.45
2022-12-05T19:06:51.162Z,8.90
2022-12-05T19:09:22.612Z,11.63
2022-12-05T19:11:59.755Z,9.50
2022-12-05T19:14:33.229Z,9.10
2022-12-05T19:17:05.675Z,9.52
2022-12-05T19:19:36.108Z,10.38
2022-12-05T19:22:06.413Z,11.63
2022-12-05T19:24:37.262Z,25.20
2022-12-05T19:27:10.450Z,25.55
2022-12-05T19:29:40.703Z,32.97
2022-12-05T19:32:11.036Z,13.05
2022-12-05T19:34:41.483Z,14.02
2022-12-05T19:37:11.846Z,11.82
2022-12-05T19:39:43.324Z,8.98
2022-12-05T19:42:17.321Z,9.73
2022-12-05T19:44:49.439Z,10.60
2022-12-05T19:47:19.808Z,10.25
2022-12-05T19:49:50.194Z,10.85
2022-12-05T19:52:20.559Z,18.88
2022-12-05T19:54:50.845Z,12.15
2022-12-05T19:57:23.820Z,14.50
2022-12-05T19:59:54.181Z,13.45
2022-12-05T20:02:25.314Z,14.30
2022-12-05T20:04:55.686Z,12.00
2022-12-05T20:07:25.987Z,14.43
2022-12-05T20:09:57.183Z,11.87
2022-12-05T20:12:30.336Z,11.43
2022-12-05T20:15:00.740Z,12.93
2022-12-05T20:17:31.080Z,13.35
2022-12-05T20:20:01.562Z,14.23
2022-12-05T20:22:32.164Z,12.95
2022-12-05T20:25:03.397Z,12.18
2022-12-05T20:27:37.622Z,14.50
2022-12-05T20:30:10.869Z,14.40
2022-12-05T20:32:41.319Z,15.10
2022-12-05T20:35:12.139Z,12.68
2022-12-05T20:37:42.801Z,13.20
2022-12-05T20:40:13.982Z,12.65
2022-12-05T20:42:47.034Z,12.23
2022-12-05T20:45:17.335Z,12.73
2022-12-05T20:47:47.796Z,11.23
2022-12-05T20:50:18.164Z,11.75
2022-12-05T20:52:48.608Z,11.70
2022-12-05T20:55:19.152Z,12.05
2022-12-05T20:57:52.102Z,11.48
2022-12-05T21:00:24.502Z,12.10
2022-12-05T21:02:56.818Z,13.13
2022-12-05T21:05:27.385Z,14.48
2022-12-05T21:07:57.812Z,13.05
2022-12-05T21:10:28.264Z,22.15
2022-12-05T21:13:01.309Z,14.45
2022-12-05T21:15:31.722Z,13.85
2022-12-05T21:18:02.213Z,12.32
2022-12-05T21:20:35.296Z,13.27
2022-12-05T21:23:07.985Z,12.18
2022-12-05T21:25:38.370Z,11.52
2022-12-05T21:28:11.477Z,13.15
2022-12-05T21:30:42.107Z,10.77
2022-12-05T21:33:12.561Z,11.50
2022-12-05T21:35:43.031Z,12.18
2022-12-05T21:38:13.588Z,13.07
2022-12-05T21:40:45.862Z,12.48
2022-12-05T21:43:19.588Z,12.73
2022-12-05T21:45:53.919Z,14.30
2022-12-05T21:50:55.700Z,13.02
2022-12-05T21:53:26.510Z,11.93
2022-12-05T21:56:03.641Z,12.77
2022-12-05T21:58:41.866Z,12.88
2022-12-05T22:01:15.362Z,12.68
2022-12-05T22:03:46.423Z,12.50
2022-12-05T22:06:18.577Z,12.63
2022-12-05T22:08:49.264Z,11.50
2022-12-05T22:11:20.467Z,12.52
2022-12-05T22:13:53.853Z,12.77
2022-12-05T22:16:30.844Z,12.00
2022-12-05T22:19:03.750Z,11.18
2022-12-05T22:21:35.535Z,12.07
2022-12-05T22:24:05.910Z,10.32
2022-12-05T22:26:36.263Z,10.65
2022-12-05T22:29:09.215Z,11.48
2022-12-05T22:31:39.607Z,10.57
2022-12-05T22:34:09.873Z,11.00
2022-12-05T22:36:40.129Z,11.13
2022-12-05T22:39:12.896Z,10.98
2022-12-05T22:41:43.084Z,11.70
2022-12-05T22:44:15.717Z,11.63
2022-12-05T22:46:46.034Z,12.27
2022-12-05T22:49:18.178Z,11.75
2022-12-05T22:51:51.406Z,11.47
2022-12-05T22:54:25.849Z,10.80
2022-12-05T22:56:58.859Z,12.43
2022-12-05T22:59:31.382Z,11.98
2022-12-05T23:02:01.816Z,12.05
2022-12-05T23:04:32.063Z,11.53
2022-12-05T23:07:02.585Z,11.60
2022-12-05T23:09:32.852Z,11.38
2022-12-05T23:12:03.080Z,11.20
2022-12-05T23:14:35.654Z,12.53
2022-12-05T23:17:05.969Z,12.23
2022-12-05T23:19:36.207Z,11.30
2022-12-05T23:22:06.465Z,12.07
2022-12-05T23:24:36.690Z,11.90
2022-12-05T23:27:06.967Z,11.67
2022-12-05T23:29:39.490Z,11.10
2022-12-05T23:32:09.758Z,13.03
2022-12-05T23:34:39.977Z,12.30
2022-12-05T23:37:10.242Z,13.93
2022-12-05T23:39:40.529Z,12.43
2022-12-05T23:42:15.058Z,12.13
2022-12-05T23:44:47.883Z,14.60
2022-12-05T23:47:18.139Z,12.57
2022-12-05T23:49:48.419Z,11.32
2022-12-05T23:52:18.621Z,11.67
2022-12-05T23:54:48.888Z,13.07
2022-12-05T23:57:19.068Z,12.10
2022-12-05T23:59:51.618Z,12.43
